createdAt,value
2017-08-23T00:00:00.466Z,9.53
2017-08-23T00:02:27.926Z,10.63
2017-08-23T00:04:55.410Z,10.47
2017-08-23T00:07:23.651Z,10.27
2017-08-23T00:09:51.128Z,15.37
2017-08-23T00:12:19.365Z,10.33
2017-08-23T00:14:46.846Z,11.60
2017-08-23T00:17:14.333Z,12.67
2017-08-23T00:19:41.785Z,10.30
2017-08-23T00:22:10.066Z,10.70
2017-08-23T00:24:37.522Z,12.03
2017-08-23T00:27:05.003Z,13.17
2017-08-23T00:29:32.474Z,11.97
2017-08-23T00:31:59.941Z,9.37
2017-08-23T00:34:27.443Z,13.10
2017-08-23T00:36:54.899Z,12.10
2017-08-23T00:39:22.354Z,11.20
2017-08-23T00:41:49.837Z,12.50
2017-08-23T00:44:17.291Z,11.03
2017-08-23T00:46:44.774Z,10.90
2017-08-23T00:49:12.318Z,11.70
2017-08-23T00:51:39.793Z,12.07
2017-08-23T00:54:07.250Z,15.30
2017-08-23T00:56:34.773Z,12.70
2017-08-23T00:59:03.009Z,8.67
2017-08-23T01:01:30.469Z,12.03
2017-08-23T01:03:57.974Z,14.40
2017-08-23T01:06:25.437Z,12.03
2017-08-23T01:08:52.906Z,14.50
2017-08-23T01:11:20.398Z,10.77
2017-08-23T01:13:47.862Z,12.50
2017-08-23T01:16:15.340Z,19.40
2017-08-23T01:18:42.813Z,11.50
2017-08-23T01:21:10.293Z,13.90
2017-08-23T01:23:37.800Z,12.70
2017-08-23T01:26:05.274Z,8.60
2017-08-23T01:28:32.725Z,12.50
2017-08-23T01:31:00.280Z,10.70
2017-08-23T01:33:27.837Z,10.30
2017-08-23T01:35:55.394Z,10.83
2017-08-23T01:38:22.850Z,10.23
2017-08-23T01:40:50.301Z,15.77
2017-08-23T01:43:17.789Z,11.70
2017-08-23T01:45:45.237Z,8.57
2017-08-23T01:48:13.226Z,17.70
2017-08-23T01:50:40.673Z,12.80
2017-08-23T01:53:08.131Z,11.30
2017-08-23T01:55:35.615Z,14.23
2017-08-23T01:58:03.066Z,14.20
2017-08-23T02:00:30.526Z,12.30
2017-08-23T02:02:58.005Z,11.83
2017-08-23T02:05:25.471Z,5.00
2017-08-23T02:07:52.946Z,13.37
2017-08-23T02:10:20.458Z,10.30
2017-08-23T02:12:48.410Z,13.50
2017-08-23T02:15:15.870Z,10.83
2017-08-23T02:17:43.355Z,14.33
2017-08-23T02:20:10.838Z,8.60
2017-08-23T02:22:38.331Z,10.90
2017-08-23T02:25:05.818Z,10.00
2017-08-23T02:27:33.308Z,16.07
2017-08-23T02:30:00.778Z,14.73
2017-08-23T02:32:28.280Z,16.10
2017-08-23T02:34:55.794Z,11.53
2017-08-23T02:37:23.294Z,9.60
2017-08-23T02:39:50.779Z,22.43
2017-08-23T02:42:18.267Z,17.20
2017-08-23T02:44:45.757Z,19.90
2017-08-23T02:47:13.225Z,16.23
2017-08-23T02:49:40.719Z,9.70
2017-08-23T02:52:08.196Z,13.50
2017-08-23T02:54:35.662Z,11.53
2017-08-23T02:57:03.141Z,13.07
2017-08-23T02:59:30.601Z,15.53
2017-08-23T03:01:58.087Z,9.27
2017-08-23T03:04:25.548Z,12.13
2017-08-23T03:06:53.005Z,10.97
2017-08-23T03:09:20.483Z,12.17
2017-08-23T03:11:47.952Z,11.43
2017-08-23T03:14:15.427Z,9.67
2017-08-23T03:16:42.887Z,11.83
2017-08-23T03:19:10.338Z,8.87
2017-08-23T03:21:37.821Z,11.63
2017-08-23T03:24:05.306Z,18.53
2017-08-23T03:26:32.757Z,15.83
2017-08-23T03:29:00.218Z,14.03
2017-08-23T03:31:27.731Z,15.33
2017-08-23T03:33:55.205Z,12.60
2017-08-23T03:36:22.670Z,16.20
2017-08-23T03:38:50.196Z,16.43
2017-08-23T03:41:17.662Z,12.53
2017-08-23T03:43:45.161Z,11.57
2017-08-23T03:46:12.626Z,17.63
2017-08-23T03:48:40.090Z,12.13
2017-08-23T03:51:07.576Z,11.93
2017-08-23T03:53:35.053Z,12.43
2017-08-23T03:56:02.554Z,13.03
2017-08-23T03:58:30.016Z,16.27
2017-08-23T04:00:57.471Z,12.27
2017-08-23T04:03:24.950Z,15.10
2017-08-23T04:05:52.421Z,13.53
2017-08-23T04:08:19.907Z,10.23
2017-08-23T04:10:47.382Z,12.80
2017-08-23T04:13:14.869Z,14.30
2017-08-23T04:15:42.342Z,20.40
2017-08-23T04:18:09.839Z,16.23
2017-08-23T04:20:37.302Z,16.27
2017-08-23T04:23:04.786Z,15.30
2017-08-23T04:25:32.277Z,11.77
2017-08-23T04:27:59.774Z,14.10
2017-08-23T04:30:27.241Z,14.13
2017-08-23T04:32:54.730Z,14.83
2017-08-23T04:35:22.209Z,14.10
2017-08-23T04:37:49.709Z,16.40
2017-08-23T04:40:17.178Z,14.23
2017-08-23T04:42:44.673Z,13.83
2017-08-23T04:45:12.144Z,14.90
2017-08-23T04:47:40.418Z,12.40
2017-08-23T04:50:07.885Z,12.57
2017-08-23T04:52:35.353Z,15.70
2017-08-23T04:55:02.852Z,12.03
2017-08-23T04:57:30.359Z,14.87
2017-08-23T04:59:57.926Z,12.60
2017-08-23T05:02:25.391Z,16.77
2017-08-23T05:04:52.886Z,14.70
2017-08-23T05:07:20.384Z,14.53
2017-08-23T05:09:47.893Z,13.80
2017-08-23T05:12:15.354Z,23.30
2017-08-23T05:14:42.810Z,19.03
2017-08-23T05:17:10.292Z,14.00
2017-08-23T05:19:37.761Z,19.33
2017-08-23T05:22:05.242Z,12.77
2017-08-23T05:24:32.709Z,12.50
2017-08-23T05:27:00.229Z,13.80
2017-08-23T05:29:27.686Z,16.60
2017-08-23T05:31:55.144Z,15.90
2017-08-23T05:34:22.633Z,13.30
2017-08-23T05:36:50.130Z,22.53
2017-08-23T05:39:17.629Z,14.70
2017-08-23T05:41:46.054Z,18.63
2017-08-23T05:44:13.557Z,17.30
2017-08-23T05:46:41.014Z,18.67
2017-08-23T05:49:08.482Z,14.03
2017-08-23T05:51:35.966Z,20.20
2017-08-23T05:54:03.435Z,15.23
2017-08-23T05:56:30.923Z,22.93
2017-08-23T05:58:58.478Z,12.80
2017-08-23T06:01:25.953Z,24.87
2017-08-23T06:03:53.438Z,16.73
2017-08-23T06:06:20.921Z,15.53
2017-08-23T06:08:48.406Z,19.33
2017-08-23T06:11:15.874Z,18.60
2017-08-23T06:13:43.373Z,15.90
2017-08-23T06:16:10.846Z,18.90
2017-08-23T06:18:38.335Z,15.20
2017-08-23T06:21:05.838Z,24.73
2017-08-23T06:23:33.294Z,16.43
2017-08-23T06:26:00.762Z,22.07
2017-08-23T06:28:28.261Z,15.23
2017-08-23T06:30:55.742Z,19.87
2017-08-23T06:33:23.202Z,14.70
2017-08-23T06:35:50.681Z,19.60
2017-08-23T06:38:18.181Z,21.87
2017-08-23T06:40:46.443Z,16.00
2017-08-23T06:43:13.925Z,11.77
2017-08-23T06:45:41.413Z,17.57
2017-08-23T06:48:08.917Z,13.60
2017-08-23T06:50:36.381Z,15.67
2017-08-23T06:53:03.876Z,21.70
2017-08-23T06:55:31.385Z,15.00
2017-08-23T06:57:58.894Z,19.00
2017-08-23T07:00:26.354Z,20.60
2017-08-23T07:02:53.858Z,12.27
2017-08-23T07:05:21.313Z,16.73
2017-08-23T07:07:48.774Z,16.90
2017-08-23T07:10:16.261Z,12.40
2017-08-23T07:12:43.734Z,12.67
2017-08-23T07:15:11.214Z,13.00
2017-08-23T07:17:38.730Z,12.57
2017-08-23T07:20:06.198Z,22.20
2017-08-23T07:22:33.662Z,12.67
2017-08-23T07:25:01.169Z,25.10
2017-08-23T07:27:28.629Z,15.20
2017-08-23T07:29:56.097Z,12.30
2017-08-23T07:32:23.587Z,12.73
2017-08-23T07:34:51.089Z,21.13
2017-08-23T07:37:18.559Z,19.23
2017-08-23T07:39:46.037Z,12.07
2017-08-23T07:42:13.499Z,18.43
2017-08-23T07:44:40.994Z,11.50
2017-08-23T07:47:08.473Z,14.60
2017-08-23T07:49:35.973Z,16.00
2017-08-23T07:52:03.442Z,14.00
2017-08-23T07:54:30.950Z,19.33
2017-08-23T07:56:58.450Z,12.67
2017-08-23T07:59:25.923Z,13.10
2017-08-23T08:01:53.413Z,15.03
2017-08-23T08:04:20.878Z,14.80
2017-08-23T08:06:48.369Z,11.03
2017-08-23T08:09:15.834Z,13.50
2017-08-23T08:11:43.299Z,24.37
2017-08-23T08:14:10.821Z,12.00
2017-08-23T08:16:38.293Z,15.20
2017-08-23T08:19:05.790Z,14.30
2017-08-23T08:21:33.298Z,17.20
2017-08-23T08:24:00.762Z,15.87
2017-08-23T08:26:28.218Z,11.50
2017-08-23T08:28:55.702Z,12.70
2017-08-23T08:31:23.173Z,25.43
2017-08-23T08:33:50.661Z,17.60
2017-08-23T08:36:18.122Z,20.93
2017-08-23T08:38:45.582Z,16.80
2017-08-23T08:41:13.081Z,13.27
2017-08-23T08:43:40.546Z,17.43
2017-08-23T08:46:08.005Z,17.87
2017-08-23T08:48:35.517Z,12.77
2017-08-23T08:51:03.006Z,16.37
2017-08-23T08:53:30.470Z,12.13
2017-08-23T08:55:57.934Z,15.23
2017-08-23T08:58:25.433Z,12.70
2017-08-23T09:00:52.889Z,16.40
2017-08-23T09:03:20.353Z,13.40
2017-08-23T09:05:47.841Z,17.20
2017-08-23T09:08:15.294Z,15.23
2017-08-23T09:10:42.755Z,14.83
2017-08-23T09:13:10.250Z,21.17
2017-08-23T09:15:37.707Z,16.73
2017-08-23T09:18:05.165Z,13.10
2017-08-23T09:20:33.434Z,16.00
2017-08-23T09:23:00.892Z,13.40
2017-08-23T09:25:28.361Z,15.23
2017-08-23T09:27:55.850Z,15.13
2017-08-23T09:30:23.313Z,12.33
2017-08-23T09:32:50.782Z,12.10
2017-08-23T09:35:18.277Z,15.53
2017-08-23T09:37:45.758Z,14.10
2017-08-23T09:40:13.266Z,16.63
2017-08-23T09:42:40.739Z,19.40
2017-08-23T09:45:08.222Z,12.63
2017-08-23T09:47:35.681Z,13.43
2017-08-23T09:50:03.165Z,13.40
2017-08-23T09:52:30.662Z,24.67
2017-08-23T09:54:58.134Z,19.30
2017-08-23T09:57:25.595Z,13.20
2017-08-23T09:59:53.109Z,17.30
2017-08-23T10:02:20.602Z,10.97
2017-08-23T10:04:48.102Z,13.23
2017-08-23T10:07:15.574Z,22.23
2017-08-23T10:09:43.082Z,12.70
2017-08-23T10:12:10.573Z,18.63
2017-08-23T10:14:38.073Z,14.83
2017-08-23T10:17:05.539Z,18.13
2017-08-23T10:19:32.997Z,11.73
2017-08-23T10:22:00.946Z,10.50
2017-08-23T10:24:28.405Z,24.63
2017-08-23T10:26:56.703Z,18.13
2017-08-23T10:29:24.155Z,12.03
2017-08-23T10:31:51.657Z,15.27
2017-08-23T10:34:19.116Z,17.97
2017-08-23T10:36:46.591Z,12.30
2017-08-23T10:39:14.074Z,18.10
2017-08-23T10:41:41.570Z,18.17
2017-08-23T10:44:09.046Z,13.40
2017-08-23T10:46:36.553Z,23.40
2017-08-23T10:49:04.061Z,14.17
2017-08-23T10:51:31.528Z,11.13
2017-08-23T10:53:58.997Z,19.50
2017-08-23T10:56:26.493Z,18.83
2017-08-23T10:58:53.966Z,26.23
2017-08-23T11:01:21.469Z,14.53
2017-08-23T11:03:48.938Z,23.57
2017-08-23T11:06:16.409Z,31.30
2017-08-23T11:08:43.990Z,23.63
2017-08-23T11:11:11.437Z,14.53
2017-08-23T11:13:38.929Z,17.40
2017-08-23T11:16:06.395Z,10.87
2017-08-23T11:18:33.885Z,19.33
2017-08-23T11:21:01.346Z,15.60
2017-08-23T11:23:28.809Z,18.30
2017-08-23T11:25:56.317Z,19.33
2017-08-23T11:28:23.782Z,23.90
2017-08-23T11:30:51.254Z,12.60
2017-08-23T11:33:18.750Z,16.10
2017-08-23T11:35:46.206Z,19.67
2017-08-23T11:38:13.682Z,16.53
2017-08-23T11:40:41.161Z,20.93
2017-08-23T11:43:08.674Z,11.10
2017-08-23T11:45:36.171Z,12.97
2017-08-23T11:48:03.626Z,15.10
2017-08-23T11:50:31.129Z,17.23
2017-08-23T11:52:58.602Z,9.90
2017-08-23T11:55:26.066Z,16.90
2017-08-23T11:57:54.929Z,16.43
2017-08-23T12:00:22.423Z,12.83
2017-08-23T12:02:49.941Z,14.13
2017-08-23T12:05:17.406Z,12.73
2017-08-23T12:07:44.862Z,18.10
2017-08-23T12:10:12.357Z,13.43
2017-08-23T12:12:39.827Z,11.57
2017-08-23T12:15:07.366Z,9.20
2017-08-23T12:17:35.617Z,8.83
2017-08-23T12:20:03.070Z,13.40
2017-08-23T12:22:30.569Z,12.20
2017-08-23T12:24:58.025Z,18.53
2017-08-23T12:27:25.489Z,7.57
2017-08-23T12:29:52.989Z,10.03
2017-08-23T12:32:20.449Z,15.40
2017-08-23T12:34:47.925Z,17.40
2017-08-23T12:37:15.418Z,6.30
2017-08-23T12:39:42.922Z,15.03
2017-08-23T12:42:10.415Z,13.93
2017-08-23T12:44:37.881Z,6.07
2017-08-23T12:47:05.337Z,5.93
2017-08-23T12:49:32.814Z,6.77
2017-08-23T12:52:01.853Z,5.40
2017-08-23T12:54:29.346Z,12.40
2017-08-23T12:56:56.831Z,9.30
2017-08-23T12:59:24.332Z,12.17
2017-08-23T13:01:51.822Z,9.00
2017-08-23T13:04:19.301Z,10.63
2017-08-23T13:06:46.790Z,5.53
2017-08-23T13:09:14.250Z,8.10
2017-08-23T13:11:41.714Z,6.30
2017-08-23T13:14:09.213Z,3.10
2017-08-23T13:16:36.673Z,15.93
2017-08-23T13:19:04.159Z,5.70
2017-08-23T13:21:31.645Z,6.63
2017-08-23T13:23:59.134Z,3.73
2017-08-23T13:26:26.598Z,11.17
2017-08-23T13:28:54.063Z,5.83
2017-08-23T13:31:21.558Z,13.93
2017-08-23T13:33:49.030Z,8.00
2017-08-23T13:36:16.507Z,6.17
2017-08-23T13:38:43.986Z,5.80
2017-08-23T13:41:11.450Z,4.80
2017-08-23T13:43:38.975Z,7.50
2017-08-23T13:46:06.429Z,3.60
2017-08-23T13:48:33.885Z,8.80
2017-08-23T13:51:01.370Z,7.13
2017-08-23T13:53:28.829Z,7.00
2017-08-23T13:55:56.322Z,4.03
2017-08-23T13:58:23.797Z,12.10
2017-08-23T14:00:51.258Z,11.33
2017-08-23T14:03:18.743Z,10.90
2017-08-23T14:05:46.202Z,3.03
2017-08-23T14:08:13.689Z,4.37
2017-08-23T14:10:41.162Z,5.17
2017-08-23T14:13:08.662Z,7.37
2017-08-23T14:15:36.137Z,7.03
2017-08-23T14:18:03.614Z,4.17
2017-08-23T14:20:31.094Z,2.53
2017-08-23T14:22:58.554Z,3.67
2017-08-23T14:25:26.033Z,4.73
2017-08-23T14:27:53.518Z,8.23
2017-08-23T14:30:20.978Z,4.07
2017-08-23T14:32:48.478Z,2.90
2017-08-23T14:35:15.935Z,6.87
2017-08-23T14:37:43.410Z,11.43
2017-08-23T14:40:10.901Z,3.23
2017-08-23T14:42:38.378Z,4.13
2017-08-23T14:45:05.873Z,3.63
2017-08-23T14:47:33.326Z,4.50
2017-08-23T14:50:00.781Z,3.47
2017-08-23T14:52:28.258Z,5.53
2017-08-23T14:54:55.718Z,3.13
2017-08-23T14:57:23.204Z,3.07
2017-08-23T14:59:50.701Z,7.63
2017-08-23T15:02:18.162Z,4.63
2017-08-23T15:04:45.618Z,4.97
2017-08-23T15:07:13.101Z,6.63
2017-08-23T15:12:14.425Z,8.97
2017-08-23T15:14:41.894Z,10.00
2017-08-23T15:17:09.375Z,6.00
2017-08-23T15:19:36.857Z,4.03
2017-08-23T15:22:04.356Z,8.73
2017-08-23T15:24:31.815Z,4.97
2017-08-23T15:26:59.298Z,14.30
2017-08-23T15:29:26.794Z,4.60
2017-08-23T15:31:54.281Z,9.90
2017-08-23T15:34:21.750Z,7.43
2017-08-23T15:36:49.227Z,4.40
2017-08-23T15:39:16.682Z,7.73
2017-08-23T15:41:44.162Z,4.90
2017-08-23T15:44:11.638Z,5.70
2017-08-23T15:46:39.137Z,10.80
2017-08-23T15:49:06.674Z,6.40
2017-08-23T15:51:34.158Z,6.03
2017-08-23T15:54:01.639Z,3.97
2017-08-23T15:56:29.141Z,7.97
2017-08-23T15:58:57.011Z,11.00
2017-08-23T16:01:25.360Z,8.50
2017-08-23T16:03:53.385Z,5.83
2017-08-23T16:06:21.675Z,4.70
2017-08-23T16:08:49.255Z,8.53
2017-08-23T16:11:17.133Z,5.20
2017-08-23T16:13:45.215Z,4.23
2017-08-23T16:16:12.838Z,8.23
2017-08-23T16:18:41.026Z,5.83
2017-08-23T16:21:08.517Z,6.43
2017-08-23T16:23:36.399Z,7.70
2017-08-23T16:26:03.889Z,7.73
2017-08-23T16:28:32.412Z,10.43
2017-08-23T16:31:01.134Z,11.33
2017-08-23T16:33:29.430Z,5.10
2017-08-23T16:35:57.196Z,96.57
2017-08-23T16:38:25.902Z,13.50
2017-08-23T16:40:54.596Z,17.23
2017-08-23T16:43:23.712Z,23.63
2017-08-23T16:45:51.268Z,9.13
2017-08-23T16:48:18.800Z,12.60
2017-08-23T16:50:46.323Z,7.90
2017-08-23T16:53:14.270Z,5.70
2017-08-23T16:55:42.181Z,9.10
2017-08-23T16:58:11.613Z,14.30
2017-08-23T17:00:39.276Z,14.17
2017-08-23T17:03:07.087Z,25.13
2017-08-23T17:05:35.078Z,13.60
2017-08-23T17:08:02.624Z,12.60
2017-08-23T17:10:38.766Z,12.47
2017-08-23T17:13:14.863Z,6.83
2017-08-23T17:18:28.056Z,10.00
2017-08-23T17:24:27.231Z,7.40
2017-08-23T17:27:04.236Z,12.80
2017-08-23T17:29:47.176Z,8.10
2017-08-23T17:32:42.520Z,8.67
2017-08-23T17:42:14.800Z,8.50
2017-08-23T17:44:53.545Z,6.47
2017-08-23T17:47:33.706Z,7.57
2017-08-23T17:50:05.583Z,8.90
2017-08-23T17:52:37.292Z,13.83
2017-08-23T17:58:04.907Z,8.00
2017-08-23T18:03:17.713Z,9.70
2017-08-23T18:05:45.210Z,5.23
2017-08-23T18:08:13.303Z,18.83
2017-08-23T18:10:41.686Z,13.03
2017-08-23T18:13:09.200Z,9.83
2017-08-23T18:15:36.717Z,31.97
2017-08-23T18:18:04.215Z,9.23
2017-08-23T18:20:31.708Z,8.23
2017-08-23T18:22:59.215Z,11.50
2017-08-23T18:25:26.784Z,13.40
2017-08-23T18:27:54.288Z,9.87
2017-08-23T18:30:21.804Z,12.93
2017-08-23T18:32:49.330Z,12.33
2017-08-23T18:35:16.793Z,15.17
2017-08-23T18:37:44.289Z,9.63
2017-08-23T18:40:11.744Z,7.50
2017-08-23T18:42:39.201Z,14.23
2017-08-23T18:45:06.679Z,12.37
2017-08-23T18:47:35.319Z,13.37
2017-08-23T18:50:02.798Z,11.43
2017-08-23T18:52:31.214Z,8.67
2017-08-23T18:54:59.765Z,12.93
2017-08-23T18:57:27.594Z,7.17
2017-08-23T18:59:55.470Z,9.90
2017-08-23T19:02:22.938Z,5.07
2017-08-23T19:04:51.222Z,8.73
2017-08-23T19:07:19.964Z,7.13
2017-08-23T19:09:49.049Z,7.70
2017-08-23T19:12:17.108Z,5.23
2017-08-23T19:14:45.076Z,10.43
2017-08-23T19:17:13.171Z,6.20
2017-08-23T19:19:41.187Z,7.33
2017-08-23T19:22:09.937Z,8.40
2017-08-23T19:27:20.176Z,10.53
2017-08-23T19:29:55.774Z,8.13
2017-08-23T19:32:30.296Z,5.77
2017-08-23T19:35:11.246Z,9.37
2017-08-23T19:40:19.603Z,8.20
2017-08-23T19:45:42.903Z,9.00
2017-08-23T19:48:10.891Z,8.70
2017-08-23T19:50:38.630Z,8.70
2017-08-23T19:53:07.426Z,7.23
2017-08-23T19:55:35.586Z,9.47
2017-08-23T19:58:03.231Z,6.63
2017-08-23T20:00:31.493Z,7.60
2017-08-23T20:02:59.405Z,9.40
2017-08-23T20:05:27.273Z,9.33
2017-08-23T20:07:55.425Z,9.40
2017-08-23T20:10:22.937Z,8.47
2017-08-23T20:12:50.413Z,9.03
2017-08-23T20:15:17.869Z,6.43
2017-08-23T20:17:45.353Z,10.43
2017-08-23T20:20:12.810Z,10.93
2017-08-23T20:22:40.307Z,12.27
2017-08-23T20:25:07.950Z,6.60
2017-08-23T20:27:35.405Z,5.60
2017-08-23T20:30:03.122Z,5.60
2017-08-23T20:32:30.575Z,7.53
2017-08-23T20:34:58.061Z,5.63
2017-08-23T20:37:25.562Z,6.67
2017-08-23T20:39:53.025Z,6.90
2017-08-23T20:42:20.497Z,7.10
2017-08-23T20:44:47.973Z,15.63
2017-08-23T20:47:15.461Z,15.30
2017-08-23T20:49:42.913Z,10.77
2017-08-23T20:52:10.398Z,14.10
2017-08-23T20:54:37.891Z,17.83
2017-08-23T20:57:05.345Z,5.30
2017-08-23T20:59:32.829Z,9.40
2017-08-23T21:02:00.630Z,9.60
2017-08-23T21:04:28.091Z,8.97
2017-08-23T21:06:55.578Z,6.63
2017-08-23T21:09:23.018Z,6.33
2017-08-23T21:11:50.470Z,7.23
2017-08-23T21:14:17.996Z,10.27
2017-08-23T21:16:45.474Z,10.80
2017-08-23T21:19:12.986Z,17.47
2017-08-23T21:21:40.447Z,13.50
2017-08-23T21:24:07.906Z,9.73
2017-08-23T21:26:35.378Z,12.73
2017-08-23T21:29:02.977Z,17.83
2017-08-23T21:31:30.437Z,12.80
2017-08-23T21:33:57.894Z,15.37
2017-08-23T21:36:25.409Z,11.47
2017-08-23T21:38:52.866Z,14.10
2017-08-23T21:41:20.322Z,11.50
2017-08-23T21:43:47.810Z,17.47
2017-08-23T21:46:15.261Z,17.33
2017-08-23T21:48:43.477Z,19.80
2017-08-23T21:51:10.963Z,25.70
2017-08-23T21:53:38.423Z,32.07
2017-08-23T21:56:05.920Z,41.50
2017-08-23T21:58:34.281Z,33.87
2017-08-23T22:01:01.738Z,60.43
2017-08-23T22:03:29.227Z,41.93
2017-08-23T22:05:56.686Z,41.60
2017-08-23T22:08:24.141Z,56.10
2017-08-23T22:10:51.623Z,55.63
2017-08-23T22:13:19.074Z,55.23
2017-08-23T22:15:46.552Z,47.70
2017-08-23T22:18:14.012Z,42.10
2017-08-23T22:20:41.487Z,40.97
2017-08-23T22:23:08.941Z,46.13
2017-08-23T22:25:36.457Z,55.57
2017-08-23T22:28:03.921Z,54.03
2017-08-23T22:30:31.381Z,51.63
2017-08-23T22:32:58.863Z,48.77
2017-08-23T22:35:26.341Z,56.63
2017-08-23T22:37:53.801Z,49.20
2017-08-23T22:40:21.293Z,58.30
2017-08-23T22:42:48.748Z,53.13
2017-08-23T22:45:16.201Z,44.50
2017-08-23T22:47:43.684Z,54.17
2017-08-23T22:50:11.158Z,47.60
2017-08-23T22:52:38.618Z,55.17
2017-08-23T22:55:06.106Z,51.40
2017-08-23T22:57:33.561Z,51.70
2017-08-23T23:00:01.041Z,56.77
2017-08-23T23:02:29.266Z,47.73
2017-08-23T23:04:56.729Z,44.57
2017-08-23T23:07:24.213Z,45.47
2017-08-23T23:09:51.665Z,53.67
2017-08-23T23:12:19.150Z,38.73
2017-08-23T23:14:46.601Z,39.83
2017-08-23T23:17:14.092Z,35.27
2017-08-23T23:19:41.621Z,44.07
2017-08-23T23:22:09.083Z,30.23
2017-08-23T23:24:36.563Z,34.97
2017-08-23T23:27:04.018Z,25.70
2017-08-23T23:29:31.514Z,29.03
2017-08-23T23:31:58.984Z,33.03
2017-08-23T23:34:26.449Z,29.33
2017-08-23T23:36:53.937Z,42.63
2017-08-23T23:39:21.409Z,27.80
2017-08-23T23:41:48.903Z,24.33
2017-08-23T23:44:16.394Z,24.27
2017-08-23T23:46:43.884Z,27.10
2017-08-23T23:49:12.253Z,25.90
2017-08-23T23:51:39.751Z,23.03
2017-08-23T23:54:07.226Z,31.83
2017-08-23T23:56:34.689Z,36.20
2017-08-23T23:59:02.177Z,29.30
